Observation data for Amherst on 08/14/2019      Previous  Date  Next       Current Mesonet Observations  Soil Data  Daily Summary Page  Observations in Plain Language
KAMH 140500Z 10010KT 24/16 A3016 RMK A01 T02430164  RH  065%=      5-min Rain = 0
KAMH 140505Z 10009KT 24/16 A3016 RMK A01 T02430164  RH  065%=      5-min Rain = 0
KAMH 140510Z 10009KT 24/17 A3015 RMK A01 T02420165  RH  065%=      5-min Rain = 0
KAMH 140515Z 09008KT 24/17 A3015 RMK A01 T02430166  RH  065%=      5-min Rain = 0
KAMH 140520Z 08008KT 24/17 A3016 RMK A01 T02410165  RH  066%=      5-min Rain = 0
KAMH 140525Z 08008KT 24/17 A3016 RMK A01 T02400166  RH  066%=      5-min Rain = 0
KAMH 140530Z 08007KT 24/17 A3016 RMK A01 T02380166  RH  067%=      5-min Rain = 0
KAMH 140535Z 08007KT 24/17 A3015 RMK A01 T02360165  RH  068%=      5-min Rain = 0
KAMH 140540Z 08007KT 23/17 A3015 RMK A01 T02340166  RH  069%=      5-min Rain = 0
KAMH 140545Z 08007KT 23/17 A3015 RMK A01 T02320165  RH  070%=      5-min Rain = 0
KAMH 140550Z 09008KT 23/17 A3015 RMK A01 T02290165  RH  071%=      5-min Rain = 0
KAMH 140555Z 10008KT 23/17 A3015 RMK A01 T02270167  RH  072%=      5-min Rain = 0
KAMH 140600Z 10008KT 23/17 A3015 RMK A01 T02300167  RH  071%=      5-min Rain = 0
KAMH 140605Z 09008KT 23/17 A3015 RMK A01 T02290166  RH  071%=      5-min Rain = 0
KAMH 140610Z 08007KT 23/17 A3016 RMK A01 T02270167  RH  072%=      5-min Rain = 0
KAMH 140615Z 09008KT 23/17 A3016 RMK A01 T02260167  RH  073%=      5-min Rain = 0
KAMH 140620Z 08008KT 23/17 A3016 RMK A01 T02260168  RH  073%=      5-min Rain = 0
KAMH 140625Z 09008KT 23/17 A3016 RMK A01 T02250168  RH  074%=      5-min Rain = 0
KAMH 140630Z 09008KT 22/17 A3017 RMK A01 T02240168  RH  074%=      5-min Rain = 0
KAMH 140635Z 09008KT 22/17 A3017 RMK A01 T02220169  RH  075%=      5-min Rain = 0
KAMH 140640Z 08008KT 22/17 A3017 RMK A01 T02220169  RH  076%=      5-min Rain = 0
KAMH 140645Z 07008KT 22/17 A3017 RMK A01 T02230169  RH  075%=      5-min Rain = 0
KAMH 140650Z 06009KT 22/17 A3018 RMK A01 T02220169  RH  076%=      5-min Rain = 0
KAMH 140655Z 07009KT 22/17 A3018 RMK A01 T02210169  RH  076%=      5-min Rain = 0
KAMH 140700Z 07010KT 22/17 A3018 RMK A01 T02220171  RH  076%=      5-min Rain = 0
KAMH 140705Z 07010KT 22/17 A3018 RMK A01 T02240172  RH  076%=      5-min Rain = 0
KAMH 140710Z 06011KT 22/17 A3019 RMK A01 T02240172  RH  076%=      5-min Rain = 0
KAMH 140715Z 07011KT 22/17 A3019 RMK A01 T02240172  RH  076%=      5-min Rain = 0
KAMH 140720Z 07011KT 22/17 A3019 RMK A01 T02230172  RH  076%=      5-min Rain = 0
KAMH 140725Z 07011KT 22/17 A3018 RMK A01 T02240172  RH  076%=      5-min Rain = 0
KAMH 140730Z 07011KT 22/17 A3018 RMK A01 T02240173  RH  077%=      5-min Rain = 0
KAMH 140735Z 07010KT 22/17 A3018 RMK A01 T02230173  RH  077%=      5-min Rain = 0
KAMH 140740Z 07009KT 22/17 A3018 RMK A01 T02220172  RH  077%=      5-min Rain = 0
KAMH 140745Z 07009KT 22/17 A3018 RMK A01 T02220173  RH  078%=      5-min Rain = 0
KAMH 140750Z 08009KT 22/17 A3018 RMK A01 T02210173  RH  078%=      5-min Rain = 0
KAMH 140755Z 07008KT 22/17 A3018 RMK A01 T02210174  RH  078%=      5-min Rain = 0
KAMH 140800Z 08008KT 22/17 A3018 RMK A01 T02210174  RH  079%=      5-min Rain = 0
KAMH 140805Z 08008KT 22/18 A3018 RMK A01 T02200175  RH  079%=      5-min Rain = 0
KAMH 140810Z 08007KT 22/18 A3017 RMK A01 T02190175  RH  080%=      5-min Rain = 0
KAMH 140815Z 08008KT 22/18 A3018 RMK A01 T02190175  RH  080%=      5-min Rain = 0
KAMH 140820Z 07008KT 22/18 A3017 RMK A01 T02180175  RH  080%=      5-min Rain = 0
KAMH 140825Z 07008KT 22/18 A3018 RMK A01 T02180175  RH  081%=      5-min Rain = 0
KAMH 140830Z 07007KT 22/18 A3018 RMK A01 T02170175  RH  081%=      5-min Rain = 0
KAMH 140835Z 08007KT 22/18 A3017 RMK A01 T02160175  RH  081%=      5-min Rain = 0
KAMH 140840Z 09007KT 22/17 A3017 RMK A01 T02160174  RH  081%=      5-min Rain = 0
KAMH 140845Z 09007KT 21/17 A3017 RMK A01 T02140174  RH  082%=      5-min Rain = 0
KAMH 140850Z 08007KT 22/17 A3017 RMK A01 T02150174  RH  082%=      5-min Rain = 0
KAMH 140855Z 08008KT 22/17 A3017 RMK A01 T02150174  RH  082%=      5-min Rain = 0
KAMH 140900Z 08007KT 21/17 A3017 RMK A01 T02140174  RH  082%=      5-min Rain = 0
KAMH 140905Z 08007KT 21/17 A3017 RMK A01 T02130174  RH  082%=      5-min Rain = 0
KAMH 140910Z 07007KT 21/17 A3018 RMK A01 T02130174  RH  083%=      5-min Rain = 0
KAMH 140915Z 07006KT 21/17 A3018 RMK A01 T02130174  RH  083%=      5-min Rain = 0
KAMH 140920Z 07005KT 21/17 A3018 RMK A01 T02120174  RH  083%=      5-min Rain = 0
KAMH 140925Z 08005KT 21/17 A3019 RMK A01 T02110174  RH  083%=      5-min Rain = 0
KAMH 140930Z 07005KT 21/17 A3018 RMK A01 T02100173  RH  084%=      5-min Rain = 0
KAMH 140935Z 06006KT 21/17 A3019 RMK A01 T02090173  RH  084%=      5-min Rain = 0
KAMH 140940Z 06007KT 21/17 A3019 RMK A01 T02080173  RH  084%=      5-min Rain = 0
KAMH 140945Z 05007KT 21/17 A3019 RMK A01 T02080173  RH  084%=      5-min Rain = 0
KAMH 140950Z 05006KT 21/17 A3019 RMK A01 T02070173  RH  085%=      5-min Rain = 0
KAMH 140955Z 06006KT 21/17 A3019 RMK A01 T02050172  RH  085%=      5-min Rain = 0
KAMH 141000Z 05008KT 20/17 A302 RMK A01 T02040172  RH  086%=      5-min Rain = 0
KAMH 141005Z 05008KT 21/17 A3019 RMK A01 T02050172  RH  086%=      5-min Rain = 0
KAMH 141010Z 05008KT 21/17 A3019 RMK A01 T02050171  RH  085%=      5-min Rain = 0
KAMH 141015Z 05010KT 21/17 A302 RMK A01 T02060170  RH  084%=      5-min Rain = 0
KAMH 141020Z 05009KT 21/17 A302 RMK A01 T02070170  RH  083%=      5-min Rain = 0
KAMH 141025Z 05010KT 21/17 A302 RMK A01 T02070169  RH  083%=      5-min Rain = 0
KAMH 141030Z 05011KT 21/17 A3021 RMK A01 T02060168  RH  083%=      5-min Rain = 0
KAMH 141035Z 05012KT 21/17 A3021 RMK A01 T02070166  RH  081%=      5-min Rain = 0
KAMH 141040Z 05011KT 21/17 A3021 RMK A01 T02050166  RH  082%=      5-min Rain = 0
KAMH 141045Z 05011G17KT 20/17 A3021 RMK A01 T02040165  RH  082%=      5-min Rain = 0
KAMH 141050Z 05010KT 20/17 A3022 RMK A01 T02030165  RH  083%=      5-min Rain = 0
KAMH 141055Z 05010KT 20/16 A3021 RMK A01 T02020163  RH  082%=      5-min Rain = 0
KAMH 141100Z 05011G17KT 20/16 A3022 RMK A01 T02010156  RH  079%=      5-min Rain = 0
KAMH 141105Z 04010G15KT 20/15 A3022 RMK A01 T02010153  RH  077%=      5-min Rain = 0
KAMH 141110Z 04010G16KT 20/15 A3022 RMK A01 T02000152  RH  078%=      5-min Rain = 0
KAMH 141115Z 05012G17KT 20/15 A3022 RMK A01 T01990146  RH  075%=      5-min Rain = 0
KAMH 141120Z 05010KT 20/14 A3023 RMK A01 T01970142  RH  073%=      5-min Rain = 0
KAMH 141125Z 05011KT 20/14 A3023 RMK A01 T01960139  RH  073%=      5-min Rain = 0
KAMH 141130Z 04011G16KT 20/14 A3023 RMK A01 T01950137  RH  072%=      5-min Rain = 0
KAMH 141135Z 03011KT 20/14 A3024 RMK A01 T01950136  RH  072%=      5-min Rain = 0
KAMH 141140Z 03011KT 19/14 A3024 RMK A01 T01940135  RH  071%=      5-min Rain = 0
KAMH 141145Z 03011KT 19/13 A3024 RMK A01 T01930133  RH  071%=      5-min Rain = 0
KAMH 141150Z 03013KT 19/13 A3024 RMK A01 T01920131  RH  071%=      5-min Rain = 0
KAMH 141155Z 03011G16KT 19/13 A3025 RMK A01 T01920130  RH  070%=      5-min Rain = 0
KAMH 141200Z 04010KT 19/13 A3024 RMK A01 T01920130  RH  070%=      5-min Rain = 0
KAMH 141205Z 04011KT 19/13 A3024 RMK A01 T01930130  RH  070%=      5-min Rain = 0
KAMH 141210Z 04010KT 19/13 A3025 RMK A01 T01930130  RH  069%=      5-min Rain = 0
KAMH 141215Z 04011KT 19/13 A3025 RMK A01 T01940129  RH  069%=      5-min Rain = 0
KAMH 141220Z 04010KT 19/13 A3025 RMK A01 T01940129  RH  069%=      5-min Rain = 0
KAMH 141225Z 04010KT 19/13 A3025 RMK A01 T01940129  RH  069%=      5-min Rain = 0
KAMH 141230Z 03010KT 20/13 A3025 RMK A01 T01950130  RH  069%=      5-min Rain = 0
KAMH 141235Z 04008KT 20/13 A3025 RMK A01 T01950130  RH  069%=      5-min Rain = 0
KAMH 141240Z 04010KT 20/13 A3025 RMK A01 T01950130  RH  069%=      5-min Rain = 0
KAMH 141245Z 04010KT 20/13 A3025 RMK A01 T01960131  RH  069%=      5-min Rain = 0
KAMH 141250Z 04010KT 20/13 A3026 RMK A01 T01960132  RH  069%=      5-min Rain = 0
KAMH 141255Z 04010KT 20/13 A3027 RMK A01 T01970132  RH  069%=      5-min Rain = 0
KAMH 141300Z 04010G15KT 20/13 A3027 RMK A01 T01960131  RH  069%=      5-min Rain = 0
KAMH 141305Z 05009KT 20/13 A3027 RMK A01 T01960130  RH  069%=      5-min Rain = 0
KAMH 141310Z 05008KT 20/13 A3027 RMK A01 T01960131  RH  069%=      5-min Rain = 0
KAMH 141315Z 06009KT 20/13 A3027 RMK A01 T01970131  RH  068%=      5-min Rain = 0
KAMH 141320Z 05008KT 20/13 A3028 RMK A01 T01990132  RH  068%=      5-min Rain = 0
KAMH 141325Z 03011KT 20/13 A3029 RMK A01 T02000133  RH  068%=      5-min Rain = 0
KAMH 141330Z 03010KT 20/13 A3029 RMK A01 T02010133  RH  067%=      5-min Rain = 0
KAMH 141335Z 03011G18KT 20/13 A3029 RMK A01 T02030133  RH  067%=      5-min Rain = 0
KAMH 141340Z 03011KT 20/13 A3029 RMK A01 T02030133  RH  067%=      5-min Rain = 0
KAMH 141345Z 02011KT 20/13 A303 RMK A01 T02040133  RH  066%=      5-min Rain = 0
KAMH 141350Z 01013G18KT 20/13 A3031 RMK A01 T02040131  RH  065%=      5-min Rain = 0
KAMH 141355Z 02011G16KT 21/13 A303 RMK A01 T02060131  RH  065%=      5-min Rain = 0
KAMH 141400Z 02013KT 21/13 A303 RMK A01 T02080131  RH  064%=      5-min Rain = 0
KAMH 141405Z 02013KT 22/13 A303 RMK A01 T02150134  RH  062%=      5-min Rain = 0
KAMH 141410Z 02012KT 21/13 A3029 RMK A01 T02140133  RH  062%=      5-min Rain = 0
KAMH 141415Z 02011G16KT 22/14 A303 RMK A01 T02150135  RH  063%=      5-min Rain = 0
KAMH 141420Z 03012KT 22/14 A3029 RMK A01 T02210137  RH  062%=      5-min Rain = 0
KAMH 141425Z 02011KT 22/14 A303 RMK A01 T02240138  RH  061%=      5-min Rain = 0
KAMH 141430Z 02011KT 23/14 A303 RMK A01 T02280140  RH  060%=      5-min Rain = 0
KAMH 141435Z 02009KT 23/14 A303 RMK A01 T02300140  RH  059%=      5-min Rain = 0
KAMH 141440Z 02009KT 24/14 A303 RMK A01 T02350144  RH  059%=      5-min Rain = 0
KAMH 141445Z 02008KT 23/14 A303 RMK A01 T02330144  RH  060%=      5-min Rain = 0
KAMH 141450Z 02009KT 23/14 A3029 RMK A01 T02300143  RH  060%=      5-min Rain = 0
KAMH 141455Z 03006KT 23/14 A3029 RMK A01 T02300144  RH  061%=      5-min Rain = 0
KAMH 141500Z 02006KT 23/14 A3029 RMK A01 T02300143  RH  060%=      5-min Rain = 0
KAMH 141505Z 00005KT 23/14 A3029 RMK A01 T02300142  RH  060%=      5-min Rain = 0
KAMH 141510Z 35004KT 23/14 A3029 RMK A01 T02290141  RH  060%=      5-min Rain = 0
KAMH 141515Z 02003KT 23/14 A3028 RMK A01 T02300142  RH  060%=      5-min Rain = 0
KAMH 141520Z 05004KT 23/14 A3027 RMK A01 T02310142  RH  060%=      5-min Rain = 0
KAMH 141525Z 06005KT 23/14 A3026 RMK A01 T02330142  RH  059%=      5-min Rain = 0
KAMH 141530Z 09007KT 24/14 A3025 RMK A01 T02350142  RH  058%=      5-min Rain = 0
KAMH 141535Z 09010KT 24/14 A3024 RMK A01 T02360144  RH  058%=      5-min Rain = 0
KAMH 141540Z 09009KT 24/15 A3024 RMK A01 T02380146  RH  059%=      5-min Rain = 0
KAMH 141545Z 09008KT 24/15 A3024 RMK A01 T02380145  RH  058%=      5-min Rain = 0
KAMH 141550Z 10009KT 24/14 A3024 RMK A01 T02400143  RH  057%=      5-min Rain = 0
KAMH 141555Z 11010KT 24/14 A3024 RMK A01 T02420141  RH  055%=      5-min Rain = 0
KAMH 141600Z 12010KT 25/14 A3023 RMK A01 T02480141  RH  053%=      5-min Rain = 0
KAMH 141605Z 12010KT 25/14 A3023 RMK A01 T02510142  RH  053%=      5-min Rain = 0
KAMH 141610Z 12010KT 25/14 A3023 RMK A01 T02540142  RH  052%=      5-min Rain = 0
KAMH 141615Z 11011KT 26/14 A3022 RMK A01 T02600144  RH  051%=      5-min Rain = 0
KAMH 141620Z 11011KT 27/15 A3022 RMK A01 T02670145  RH  049%=      5-min Rain = 0
KAMH 141625Z 11009KT 27/14 A3023 RMK A01 T02720141  RH  046%=      5-min Rain = 0
KAMH 141630Z 11007KT 27/14 A3023 RMK A01 T02690143  RH  048%=      5-min Rain = 0
KAMH 141635Z 11008KT 27/14 A3022 RMK A01 T02700141  RH  047%=      5-min Rain = 0
KAMH 141640Z 11008KT 28/14 A3022 RMK A01 T02750135  RH  044%=      5-min Rain = 0
KAMH 141645Z 11008KT 28/13 A3023 RMK A01 T02790131  RH  042%=      5-min Rain = 0
KAMH 141650Z 09006KT 28/13 A3023 RMK A01 T02780132  RH  042%=      5-min Rain = 0
KAMH 141655Z 09005G10KT 28/14 A3023 RMK A01 T02830135  RH  042%=      5-min Rain = 0
KAMH 141700Z 06006KT 28/13 A3023 RMK A01 T02810131  RH  041%=      5-min Rain = 0
KAMH 141705Z 04005KT 29/13 A3023 RMK A01 T02850129  RH  040%=      5-min Rain = 0
KAMH 141710Z 04007KT 30/13 A3023 RMK A01 T02960125  RH  036%=      5-min Rain = 0
KAMH 141715Z 05008G13KT 30/12 A3023 RMK A01 T03000121  RH  035%=      5-min Rain = 0
KAMH 141720Z 05008KT 30/12 A3023 RMK A01 T03020121  RH  034%=      5-min Rain = 0
KAMH 141725Z 05009G14KT 30/12 A3024 RMK A01 T03010121  RH  034%=      5-min Rain = 0
KAMH 141730Z 03009G14KT 30/12 A3024 RMK A01 T03020116  RH  033%=      5-min Rain = 0
KAMH 141735Z 04007KT 30/12 A3024 RMK A01 T03040123  RH  034%=      5-min Rain = 0
KAMH 141740Z 04008G13KT 30/12 A3024 RMK A01 T03020121  RH  034%=      5-min Rain = 0
KAMH 141745Z 04013KT 31/11 A3024 RMK A01 T03050112  RH  032%=      5-min Rain = 0
KAMH 141750Z 04010G16KT 30/11 A3024 RMK A01 T03040108  RH  031%=      5-min Rain = 0
KAMH 141755Z 05010KT 31/11 A3024 RMK A01 T03060114  RH  032%=      5-min Rain = 0
KAMH 141800Z 05010KT 31/11 A3023 RMK A01 T03070114  RH  032%=      5-min Rain = 0
KAMH 141805Z 03009G14KT 31/11 A3023 RMK A01 T03090111  RH  031%=      5-min Rain = 0
KAMH 141810Z 04006KT 31/12 A3023 RMK A01 T03100115  RH  031%=      5-min Rain = 0
KAMH 141815Z 04009KT 31/11 A3023 RMK A01 T03080108  RH  030%=      5-min Rain = 0
KAMH 141820Z 05009G14KT 31/11 A3023 RMK A01 T03110114  RH  031%=      5-min Rain = 0
KAMH 141825Z 05011G16KT 31/12 A3024 RMK A01 T03130116  RH  031%=      5-min Rain = 0
KAMH 141830Z 02010G15KT 31/12 A3024 RMK A01 T03100118  RH  032%=      5-min Rain = 0
KAMH 141835Z 05011KT 31/12 A3023 RMK A01 T03120119  RH  032%=      5-min Rain = 0
KAMH 141840Z 02011KT 31/12 A3024 RMK A01 T03090117  RH  032%=      5-min Rain = 0
KAMH 141845Z 03011KT 31/12 A3024 RMK A01 T03080124  RH  034%=      5-min Rain = 0
KAMH 141850Z 02012G17KT 31/13 A3023 RMK A01 T03080128  RH  035%=      5-min Rain = 0
KAMH 141855Z 02008G14KT 30/13 A3023 RMK A01 T03040129  RH  036%=      5-min Rain = 0
KAMH 141900Z 03010KT 31/13 A3023 RMK A01 T03080127  RH  034%=      5-min Rain = 0
KAMH 141905Z 03009KT 31/13 A3023 RMK A01 T03090129  RH  035%=      5-min Rain = 0
KAMH 141910Z 05010G17KT 31/13 A3023 RMK A01 T03080126  RH  034%=      5-min Rain = 0
KAMH 141915Z 05008KT 31/12 A3023 RMK A01 T03090123  RH  033%=      5-min Rain = 0
KAMH 141920Z 04009G15KT 31/13 A3022 RMK A01 T03100126  RH  034%=      5-min Rain = 0
KAMH 141925Z 06008G15KT 31/13 A3022 RMK A01 T03100127  RH  034%=      5-min Rain = 0
KAMH 141930Z 07011G16KT 31/13 A3022 RMK A01 T03110129  RH  034%=      5-min Rain = 0
KAMH 141935Z 08010G15KT 31/13 A3022 RMK A01 T03110127  RH  034%=      5-min Rain = 0
KAMH 141940Z 06009G18KT 31/12 A3021 RMK A01 T03130122  RH  032%=      5-min Rain = 0
KAMH 141945Z 05006G13KT 31/12 A3021 RMK A01 T03100118  RH  032%=      5-min Rain = 0
KAMH 141950Z 05008G15KT 31/12 A3021 RMK A01 T03130122  RH  032%=      5-min Rain = 0
KAMH 141955Z 05009G14KT 32/12 A3021 RMK A01 T03160118  RH  031%=      5-min Rain = 0
KAMH 142000Z 07007G14KT 32/12 A302 RMK A01 T03160120  RH  031%=      5-min Rain = 0
KAMH 142005Z 08007G12KT 32/12 A302 RMK A01 T03150122  RH  032%=      5-min Rain = 0
KAMH 142010Z 08005G10KT 31/12 A302 RMK A01 T03140120  RH  032%=      5-min Rain = 0
KAMH 142015Z 11004G12KT 31/12 A3019 RMK A01 T03090116  RH  032%=      5-min Rain = 0
KAMH 142020Z 08003KT 31/12 A3019 RMK A01 T03120117  RH  031%=      5-min Rain = 0
KAMH 142025Z 06004KT 31/12 A3018 RMK A01 T03130120  RH  032%=      5-min Rain = 0
KAMH 142030Z 07003KT 32/12 A3018 RMK A01 T03200115  RH  030%=      5-min Rain = 0
KAMH 142035Z 03002KT 32/11 A3018 RMK A01 T03180113  RH  029%=      5-min Rain = 0
KAMH 142040Z 04004G11KT 32/12 A3017 RMK A01 T03200117  RH  030%=      5-min Rain = 0
KAMH 142045Z 07006KT 32/11 A3017 RMK A01 T03180114  RH  030%=      5-min Rain = 0
KAMH 142050Z 08005KT 32/11 A3017 RMK A01 T03190114  RH  030%=      5-min Rain = 0
KAMH 142055Z 06003KT 32/11 A3016 RMK A01 T03190113  RH  029%=      5-min Rain = 0
KAMH 142100Z 09005G10KT 32/12 A3016 RMK A01 T03220117  RH  030%=      5-min Rain = 0
KAMH 142105Z 06005KT 32/12 A3016 RMK A01 T03210115  RH  029%=      5-min Rain = 0
KAMH 142110Z 08004KT 32/11 A3016 RMK A01 T03180113  RH  030%=      5-min Rain = 0
KAMH 142115Z 09003KT 32/11 A3015 RMK A01 T03190114  RH  030%=      5-min Rain = 0
KAMH 142120Z 06002KT 32/11 A3015 RMK A01 T03190114  RH  030%=      5-min Rain = 0
KAMH 142125Z 06001KT 32/12 A3015 RMK A01 T03230115  RH  029%=      5-min Rain = 0
KAMH 142130Z 25001G6KT 32/12 A3014 RMK A01 T03240116  RH  029%=      5-min Rain = 0
KAMH 142135Z 33003KT 33/12 A3014 RMK A01 T03280116  RH  028%=      5-min Rain = 0
KAMH 142140Z 34005KT 33/12 A3014 RMK A01 T03300117  RH  028%=      5-min Rain = 0
KAMH 142145Z 33003KT 33/11 A3014 RMK A01 T03270113  RH  028%=      5-min Rain = 0
KAMH 142150Z 35004KT 33/11 A3014 RMK A01 T03260114  RH  028%=      5-min Rain = 0
KAMH 142155Z 35002KT 33/12 A3014 RMK A01 T03300117  RH  028%=      5-min Rain = 0
KAMH 142200Z 27004KT 33/11 A3014 RMK A01 T03330112  RH  027%=      5-min Rain = 0
KAMH 142205Z 36003KT 33/11 A3014 RMK A01 T03280112  RH  028%=      5-min Rain = 0
KAMH 142210Z 33003KT 33/11 A3013 RMK A01 T03260113  RH  028%=      5-min Rain = 0
KAMH 142215Z 31002KT 33/11 A3013 RMK A01 T03280110  RH  027%=      5-min Rain = 0
KAMH 142220Z 30004KT 33/11 A3013 RMK A01 T03330108  RH  026%=      5-min Rain = 0
KAMH 142225Z 34003KT 33/11 A3013 RMK A01 T03320111  RH  027%=      5-min Rain = 0
KAMH 142230Z 00003KT 33/11 A3013 RMK A01 T03290107  RH  027%=      5-min Rain = 0
KAMH 142235Z 33001KT 33/11 A3013 RMK A01 T03280107  RH  027%=      5-min Rain = 0
KAMH 142240Z 33001KT 33/11 A3013 RMK A01 T03310107  RH  026%=      5-min Rain = 0
KAMH 142245Z 29001KT 33/11 A3013 RMK A01 T03320108  RH  026%=      5-min Rain = 0
KAMH 142250Z 25003KT 33/11 A3012 RMK A01 T03320108  RH  026%=      5-min Rain = 0
KAMH 142255Z 07003G9KT 33/11 A3012 RMK A01 T03330108  RH  026%=      5-min Rain = 0
KAMH 142300Z 31004KT 33/11 A3012 RMK A01 T03320108  RH  026%=      5-min Rain = 0
KAMH 142305Z 30002KT 33/11 A3012 RMK A01 T03310106  RH  026%=      5-min Rain = 0
KAMH 142310Z 21001KT 33/11 A3012 RMK A01 T03340106  RH  026%=      5-min Rain = 0
KAMH 142315Z 12004KT 34/12 A3012 RMK A01 T03360117  RH  027%=      5-min Rain = 0
KAMH 142320Z 10003KT 33/12 A3012 RMK A01 T03310115  RH  028%=      5-min Rain = 0
KAMH 142325Z 08004KT 33/11 A3012 RMK A01 T03280114  RH  028%=      5-min Rain = 0
KAMH 142330Z 07005KT 33/12 A3012 RMK A01 T03270116  RH  029%=      5-min Rain = 0
KAMH 142335Z 07003KT 33/12 A3012 RMK A01 T03280115  RH  028%=      5-min Rain = 0
KAMH 142340Z 10006KT 33/12 A3012 RMK A01 T03260116  RH  029%=      5-min Rain = 0
KAMH 142345Z 11003KT 32/11 A3012 RMK A01 T03240113  RH  029%=      5-min Rain = 0
KAMH 142350Z 13003KT 33/11 A3012 RMK A01 T03270114  RH  028%=      5-min Rain = 0
KAMH 142355Z 10005KT 33/12 A3012 RMK A01 T03260117  RH  029%=      5-min Rain = 0
KAMH 150000Z 10004KT 32/12 A3012 RMK A01 T03190119  RH  031%=      5-min Rain = 0
KAMH 150005Z 10004KT 32/12 A3012 RMK A01 T03190117  RH  030%=      5-min Rain = 0
KAMH 150010Z 08005KT 32/12 A3012 RMK A01 T03210119  RH  030%=      5-min Rain = 0
KAMH 150015Z 09007KT 32/12 A3012 RMK A01 T03170124  RH  032%=      5-min Rain = 0
KAMH 150020Z 09006KT 32/13 A3012 RMK A01 T03150127  RH  033%=      5-min Rain = 0
KAMH 150025Z 08006KT 32/13 A3012 RMK A01 T03150128  RH  033%=      5-min Rain = 0
KAMH 150030Z 07006KT 32/12 A3012 RMK A01 T03150121  RH  032%=      5-min Rain = 0
KAMH 150035Z 08007KT 31/12 A3012 RMK A01 T03130121  RH  032%=      5-min Rain = 0
KAMH 150040Z 07007KT 31/12 A3012 RMK A01 T03120119  RH  032%=      5-min Rain = 0
KAMH 150045Z 07006KT 31/12 A3013 RMK A01 T03110117  RH  032%=      5-min Rain = 0
KAMH 150050Z 07006KT 31/12 A3013 RMK A01 T03070118  RH  033%=      5-min Rain = 0
KAMH 150055Z 08007KT 30/12 A3013 RMK A01 T03010116  RH  033%=      5-min Rain = 0
KAMH 150100Z 08006KT 30/12 A3013 RMK A01 T02980116  RH  034%=      5-min Rain = 0
KAMH 150105Z 08006KT 29/12 A3013 RMK A01 T02940117  RH  035%=      5-min Rain = 0
KAMH 150110Z 07005KT 29/12 A3013 RMK A01 T02890117  RH  036%=      5-min Rain = 0
KAMH 150115Z 08005KT 29/12 A3013 RMK A01 T02850117  RH  037%=      5-min Rain = 0
KAMH 150120Z 08005KT 28/12 A3013 RMK A01 T02830118  RH  037%=      5-min Rain = 0
KAMH 150125Z 08006KT 28/12 A3013 RMK A01 T02790121  RH  039%=      5-min Rain = 0
KAMH 150130Z 07005KT 28/12 A3014 RMK A01 T02760122  RH  040%=      5-min Rain = 0
KAMH 150135Z 07004KT 27/12 A3014 RMK A01 T02730121  RH  041%=      5-min Rain = 0
KAMH 150140Z 07005KT 27/12 A3014 RMK A01 T02710122  RH  041%=      5-min Rain = 0
KAMH 150145Z 08004KT 27/12 A3014 RMK A01 T02690122  RH  042%=      5-min Rain = 0
KAMH 150150Z 08004KT 27/12 A3014 RMK A01 T02680122  RH  042%=      5-min Rain = 0
KAMH 150155Z 07004KT 27/12 A3015 RMK A01 T02680122  RH  042%=      5-min Rain = 0
KAMH 150200Z 08003KT 27/12 A3015 RMK A01 T02700122  RH  041%=      5-min Rain = 0
KAMH 150205Z 08003KT 27/12 A3015 RMK A01 T02690122  RH  042%=      5-min Rain = 0
KAMH 150210Z 09003KT 27/12 A3015 RMK A01 T02680123  RH  042%=      5-min Rain = 0
KAMH 150215Z 10003KT 27/13 A3016 RMK A01 T02680125  RH  043%=      5-min Rain = 0
KAMH 150220Z 10003KT 27/13 A3016 RMK A01 T02680126  RH  043%=      5-min Rain = 0
KAMH 150225Z 10003KT 27/13 A3016 RMK A01 T02670126  RH  043%=      5-min Rain = 0
KAMH 150230Z 11004KT 27/13 A3016 RMK A01 T02670126  RH  043%=      5-min Rain = 0
KAMH 150235Z 12003KT 27/13 A3016 RMK A01 T02650128  RH  044%=      5-min Rain = 0
KAMH 150240Z 11003KT 26/13 A3015 RMK A01 T02630130  RH  046%=      5-min Rain = 0
KAMH 150245Z 11003KT 26/13 A3016 RMK A01 T02620130  RH  046%=      5-min Rain = 0
KAMH 150250Z 12003KT 26/13 A3016 RMK A01 T02610128  RH  045%=      5-min Rain = 0
KAMH 150255Z 12004KT 26/13 A3016 RMK A01 T02590128  RH  046%=      5-min Rain = 0
KAMH 150300Z 12005KT 26/13 A3016 RMK A01 T02550128  RH  047%=      5-min Rain = 0
KAMH 150305Z 12006KT 25/13 A3017 RMK A01 T02500126  RH  048%=      5-min Rain = 0
KAMH 150310Z 12006KT 25/12 A3017 RMK A01 T02480124  RH  048%=      5-min Rain = 0
KAMH 150315Z 12006KT 25/12 A3017 RMK A01 T02480124  RH  047%=      5-min Rain = 0
KAMH 150320Z 12006KT 25/13 A3017 RMK A01 T02460125  RH  048%=      5-min Rain = 0
KAMH 150325Z 12006KT 24/13 A3017 RMK A01 T02430126  RH  050%=      5-min Rain = 0
KAMH 150330Z 11004KT 24/13 A3017 RMK A01 T02410129  RH  051%=      5-min Rain = 0
KAMH 150335Z 12003KT 24/13 A3018 RMK A01 T02390127  RH  051%=      5-min Rain = 0
KAMH 150340Z 12004KT 24/13 A3018 RMK A01 T02390126  RH  051%=      5-min Rain = 0
KAMH 150345Z 12004KT 24/13 A3018 RMK A01 T02400127  RH  051%=      5-min Rain = 0
KAMH 150350Z 11003KT 24/13 A3019 RMK A01 T02370127  RH  052%=      5-min Rain = 0
KAMH 150355Z 11004KT 24/13 A3019 RMK A01 T02350128  RH  053%=      5-min Rain = 0
KAMH 150400Z 10004KT 23/13 A3019 RMK A01 T02330127  RH  053%=      5-min Rain = 0
KAMH 150405Z 10004KT 23/13 A3019 RMK A01 T02300130  RH  055%=      5-min Rain = 0
KAMH 150410Z 10004KT 23/13 A3019 RMK A01 T02290132  RH  057%=      5-min Rain = 0
KAMH 150415Z 10005KT 23/13 A3019 RMK A01 T02270133  RH  058%=      5-min Rain = 0
KAMH 150420Z 11007KT 23/14 A3019 RMK A01 T02310135  RH  057%=      5-min Rain = 0
KAMH 150425Z 11008KT 24/14 A3019 RMK A01 T02410135  RH  054%=      5-min Rain = 0
KAMH 150430Z 11008KT 25/14 A3019 RMK A01 T02490135  RH  051%=      5-min Rain = 0
KAMH 150435Z 12009KT 25/13 A3019 RMK A01 T02530134  RH  050%=      5-min Rain = 0
KAMH 150440Z 12009KT 25/14 A3019 RMK A01 T02540136  RH  050%=      5-min Rain = 0
KAMH 150445Z 11008KT 25/14 A3019 RMK A01 T02540138  RH  051%=      5-min Rain = 0
KAMH 150450Z 11009KT 25/14 A3019 RMK A01 T02540140  RH  051%=      5-min Rain = 0
KAMH 150455Z 11009KT 25/14 A3018 RMK A01 T02540141  RH  052%=      5-min Rain = 0

Page generated in 0.0094 seconds.